Kezdőlap
METAR-TAF:

METAR-TAF

Repülőterek :

Lansing, Michigan, Amerikai Egyesült Államok

földrajzi szélesség: 42-46-49N, földrajzi hosszúság: 084-34-44W, magasság: 262 m

Jelenlegi meteorológiai megfigyelések

A jelentés 1 órával és 8 perccel ezelõtt készült, 08:53 UTC
Szélcsend
Hőmérséklet 16°C
Páratartalom 88%
Légköri nyomás 1020 hPa
Látótávolság: 14.5 km
Derült ég

METAR: KLAN 210853Z 00000KT 9SM CLR 16/14 A3011 RMK AO2 SLP193 T01560144 53001

Idő: 06:01 (10:01 UTC)

Előrejelzés

A jelentés 4 órával és 41 perccel ezelõtt készült, 05:20 UTC
Az előrejelzés 21-én 06 óra UTC és 22-én 06 óra UTC között érvényes
Nyugati szél 3 kt
Látótávolság: 10 km
Derült ég

TAF: KLAN 210520Z 2106/2206 28003KT P6SM SKC

Meteorológiai megfigyelések és előrejelzések több, mint 4000 repülőtéren (METAR és TAF jelentéseket).

A térképen piros és sárga pontok jelzik az elérhető meteorológiai állomásokat.

Mozgassa az egeret a pont fölött, hogy megjelenjen az állomás neve.

Azután kattintson az időjárási megfigyelések és előrejelzések megtekintéséhez.

A térkép megváltoztatása: kattintson a fekete keresztel jelölt zöld gombra ráközelítéshez, a vonallal jelölt zöld gombra távolításhoz, vagy a zöld nyilakra a szomszédos térképek eléréséhez.


METAR-TAF: